createdAt,value
2019-04-23T00:00:17.050Z,12.90
2019-04-23T00:03:13.324Z,12.90
2019-04-23T00:12:49.584Z,12.90
2019-04-23T00:15:57.076Z,12.90
2019-04-23T00:19:13.650Z,12.80
2019-04-23T00:22:37.049Z,12.80
2019-04-23T00:29:00.564Z,12.70
2019-04-23T00:32:04.821Z,12.70
2019-04-23T00:38:14.035Z,12.80
2019-04-23T00:41:16.576Z,12.80
2019-04-23T00:44:26.738Z,12.80
2019-04-23T00:47:32.990Z,12.70
2019-04-23T00:50:38.533Z,12.70
2019-04-23T00:53:32.650Z,12.60
2019-04-23T00:56:46.210Z,12.50
2019-04-23T00:59:57.326Z,12.50
2019-04-23T01:02:58.964Z,12.50
2019-04-23T01:06:02.626Z,12.50
2019-04-23T01:09:10.430Z,12.50
2019-04-23T01:12:18.999Z,12.40
2019-04-23T01:15:23.994Z,12.40
2019-04-23T01:21:15.813Z,12.40
2019-04-23T01:24:38.499Z,12.30
2019-04-23T01:28:07.798Z,12.30
2019-04-23T01:34:25.712Z,12.30
2019-04-23T01:37:30.362Z,12.20
2019-04-23T01:43:42.819Z,12.10
2019-04-23T01:46:51.831Z,12.10
2019-04-23T01:50:03.103Z,12.10
2019-04-23T01:53:02.855Z,12.10
2019-04-23T01:56:09.142Z,12.10
2019-04-23T01:59:11.375Z,12.10
2019-04-23T02:02:12.349Z,12.00
2019-04-23T02:05:24.510Z,12.00
2019-04-23T02:08:20.744Z,11.90
2019-04-23T02:11:49.099Z,11.90
2019-04-23T02:14:36.470Z,11.90
2019-04-23T02:17:47.240Z,11.80
2019-04-23T02:20:47.862Z,11.80
2019-04-23T02:24:00.111Z,11.80
2019-04-23T02:27:12.154Z,11.70
2019-04-23T02:30:49.018Z,11.70
2019-04-23T02:33:34.470Z,11.70
2019-04-23T02:36:32.493Z,11.70
2019-04-23T02:39:53.618Z,11.70
2019-04-23T02:45:56.431Z,11.70
2019-04-23T02:48:56.482Z,11.70
2019-04-23T02:52:08.036Z,11.70
2019-04-23T02:55:09.188Z,11.60
2019-04-23T02:58:21.378Z,11.60
2019-04-23T03:04:29.112Z,11.50
2019-04-23T03:07:32.956Z,11.50
2019-04-23T03:10:30.781Z,11.50
2019-04-23T03:13:51.164Z,11.50
2019-04-23T03:17:04.285Z,11.50
2019-04-23T03:23:31.904Z,11.40
2019-04-23T03:26:47.668Z,11.40
2019-04-23T03:32:51.962Z,11.30
2019-04-23T03:38:55.584Z,11.30
2019-04-23T03:42:02.024Z,11.20
2019-04-23T03:45:16.747Z,11.20
2019-04-23T03:48:16.802Z,11.20
2019-04-23T03:51:16.364Z,11.20
2019-04-23T03:54:36.128Z,11.20
2019-04-23T04:06:48.079Z,11.10
2019-04-23T04:12:56.914Z,11.00
2019-04-23T04:16:00.942Z,11.00
2019-04-23T04:19:23.023Z,11.00
2019-04-23T04:22:28.398Z,11.10
2019-04-23T04:25:26.925Z,11.10
2019-04-23T04:28:31.087Z,11.00
2019-04-23T04:31:48.432Z,11.00
2019-04-23T04:40:55.302Z,11.00
2019-04-23T04:46:59.793Z,11.00
2019-04-23T04:50:14.864Z,11.00
2019-04-23T04:53:26.966Z,11.00
2019-04-23T04:59:22.837Z,11.00
2019-04-23T05:02:37.834Z,11.10
2019-04-23T05:11:54.155Z,11.10
2019-04-23T05:14:56.840Z,11.20
2019-04-23T05:18:17.406Z,11.20
2019-04-23T05:21:12.038Z,11.30
2019-04-23T05:24:15.010Z,11.30
2019-04-23T05:27:19.287Z,11.30
2019-04-23T05:33:34.148Z,11.40
2019-04-23T05:36:41.511Z,11.40
2019-04-23T05:39:38.131Z,11.60
2019-04-23T05:42:45.729Z,11.60
2019-04-23T05:46:16.053Z,11.70
2019-04-23T05:48:59.532Z,11.80
2019-04-23T05:52:00.335Z,11.90
2019-04-23T05:55:08.716Z,12.00
2019-04-23T06:01:49.888Z,12.30
2019-04-23T06:04:39.003Z,12.50
2019-04-23T06:07:43.923Z,12.70
2019-04-23T06:10:48.156Z,12.90
2019-04-23T06:14:02.046Z,13.00
2019-04-23T06:17:03.845Z,13.30
2019-04-23T06:23:18.095Z,13.60
2019-04-23T06:26:30.294Z,13.80
2019-04-23T06:29:25.637Z,14.00
2019-04-23T06:35:41.288Z,14.10
2019-04-23T06:38:47.869Z,14.20
2019-04-23T06:41:49.837Z,14.30
2019-04-23T06:48:07.567Z,14.40
2019-04-23T06:54:16.485Z,14.30
2019-04-23T06:57:17.917Z,14.20
2019-04-23T07:00:21.376Z,14.20
2019-04-23T07:03:31.220Z,14.30
2019-04-23T07:06:38.462Z,14.20
2019-04-23T07:09:35.261Z,14.20
2019-04-23T07:12:47.111Z,14.10
2019-04-23T07:18:54.559Z,14.10
2019-04-23T07:22:06.384Z,14.20
2019-04-23T07:25:17.686Z,14.30
2019-04-23T07:28:13.227Z,14.40
2019-04-23T07:31:22.866Z,14.50
2019-04-23T07:34:18.058Z,14.50
2019-04-23T07:40:40.619Z,14.40
2019-04-23T07:43:55.801Z,14.40
2019-04-23T07:47:51.960Z,14.40
2019-04-23T07:50:44.139Z,14.50
2019-04-23T07:53:48.374Z,14.50
2019-04-23T07:56:52.789Z,14.60
2019-04-23T08:00:07.889Z,14.70
2019-04-23T08:03:10.495Z,14.80
2019-04-23T08:06:00.650Z,14.90
2019-04-23T08:09:34.225Z,14.80
2019-04-23T08:15:32.765Z,14.80
2019-04-23T08:18:36.258Z,14.90
2019-04-23T08:21:32.081Z,14.90
2019-04-23T08:24:55.582Z,15.00
2019-04-23T08:28:12.041Z,15.10
2019-04-23T08:31:07.809Z,15.20
2019-04-23T08:50:15.398Z,15.70
2019-04-23T08:53:17.898Z,15.70
2019-04-23T08:56:08.705Z,15.80
2019-04-23T08:59:28.112Z,15.90
2019-04-23T09:02:34.018Z,16.00
2019-04-23T09:05:32.329Z,16.00
2019-04-23T09:08:32.439Z,16.20
2019-04-23T09:14:44.824Z,16.60
2019-04-23T09:20:48.180Z,16.70
2019-04-23T09:24:00.657Z,16.90
2019-04-23T09:27:16.013Z,17.20
2019-04-23T09:30:14.628Z,17.20
2019-04-23T09:37:15.225Z,17.10
2019-04-23T09:40:31.483Z,17.30
2019-04-23T09:43:49.573Z,17.30
2019-04-23T09:50:15.664Z,17.50
2019-04-23T09:53:25.328Z,17.60
2019-04-23T09:56:22.490Z,17.60
2019-04-23T09:59:41.328Z,17.40
2019-04-23T10:02:28.144Z,17.50
2019-04-23T10:05:29.179Z,17.70
2019-04-23T10:08:27.030Z,17.80
2019-04-23T10:11:26.195Z,17.70
2019-04-23T10:14:30.447Z,17.90
2019-04-23T10:17:36.112Z,17.90
2019-04-23T10:20:40.728Z,17.90
2019-04-23T10:23:45.236Z,18.00
2019-04-23T10:26:50.397Z,18.20
2019-04-23T10:29:56.074Z,18.20
2019-04-23T10:33:01.467Z,18.30
2019-04-23T10:36:10.944Z,18.50
2019-04-23T10:39:17.824Z,18.60
2019-04-23T10:42:18.146Z,18.70
2019-04-23T10:46:07.939Z,18.80
2019-04-23T10:52:37.443Z,18.90
2019-04-23T10:58:45.558Z,19.00
2019-04-23T11:02:09.932Z,19.10
2019-04-23T11:05:17.957Z,19.10
2019-04-23T11:08:03.525Z,19.20
2019-04-23T11:11:15.220Z,19.30
2019-04-23T11:17:33.021Z,19.40
2019-04-23T11:23:34.841Z,19.80
2019-04-23T11:26:46.129Z,19.90
2019-04-23T11:29:57.456Z,19.90
2019-04-23T11:33:02.761Z,19.70
2019-04-23T11:36:19.354Z,19.70
2019-04-23T11:38:58.626Z,19.80
2019-04-23T11:50:56.016Z,20.10
2019-04-23T11:54:30.629Z,20.20
2019-04-23T11:57:42.527Z,20.20
2019-04-23T12:04:26.650Z,20.50
2019-04-23T12:11:08.547Z,20.40
2019-04-23T12:14:21.970Z,20.60
2019-04-23T12:17:18.632Z,20.70
2019-04-23T12:20:22.980Z,20.60
2019-04-23T12:23:41.248Z,20.50
2019-04-23T12:26:45.535Z,20.50
2019-04-23T12:29:44.557Z,20.40
2019-04-23T12:33:03.138Z,20.20
2019-04-23T12:36:10.276Z,20.00
2019-04-23T12:39:12.418Z,20.00
2019-04-23T12:42:34.469Z,20.10
2019-04-23T12:45:34.013Z,20.10
2019-04-23T12:48:33.841Z,20.00
2019-04-23T12:51:35.306Z,20.00
2019-04-23T12:54:51.086Z,20.10
2019-04-23T12:57:42.311Z,20.30
2019-04-23T13:00:44.292Z,20.30
2019-04-23T13:03:45.858Z,20.20
2019-04-23T13:07:03.235Z,20.00
2019-04-23T13:10:10.268Z,19.90
2019-04-23T13:16:19.574Z,20.10
2019-04-23T13:19:36.315Z,20.10
2019-04-23T13:22:31.565Z,20.00
2019-04-23T13:29:05.076Z,20.20
2019-04-23T13:32:09.635Z,20.20
2019-04-23T13:35:31.432Z,20.00
2019-04-23T13:38:37.946Z,20.00
2019-04-23T13:41:20.158Z,20.00
2019-04-23T13:44:36.548Z,20.00
2019-04-23T13:47:46.928Z,20.10
2019-04-23T13:53:58.977Z,20.00
2019-04-23T13:57:25.756Z,20.00
2019-04-23T13:59:56.116Z,20.00
2019-04-23T14:03:04.413Z,19.90
2019-04-23T14:06:23.083Z,19.80
2019-04-23T14:09:20.018Z,19.60
2019-04-23T14:12:22.613Z,19.60
2019-04-23T14:15:40.712Z,19.40
2019-04-23T14:18:52.168Z,19.30
2019-04-23T14:21:37.000Z,19.20
2019-04-23T14:28:01.262Z,19.10
2019-04-23T14:31:00.140Z,19.00
2019-04-23T14:34:04.968Z,18.90
2019-04-23T14:37:14.117Z,18.90
2019-04-23T14:40:35.564Z,18.80
2019-04-23T14:43:25.622Z,18.70
2019-04-23T14:49:54.698Z,18.50
2019-04-23T14:52:50.497Z,18.50
2019-04-23T14:56:13.212Z,18.50
2019-04-23T14:59:04.713Z,18.40
2019-04-23T15:02:05.552Z,18.30
2019-04-23T15:05:15.485Z,18.10
2019-04-23T15:08:28.622Z,18.00
2019-04-23T15:17:34.674Z,17.90
2019-04-23T15:20:53.315Z,17.80
2019-04-23T15:24:00.831Z,17.70
2019-04-23T15:29:52.596Z,17.60
2019-04-23T15:33:22.346Z,17.50
2019-04-23T15:36:32.530Z,17.50
2019-04-23T15:39:24.290Z,17.40
2019-04-23T15:42:32.929Z,17.40
2019-04-23T15:45:28.544Z,17.30
2019-04-23T15:48:42.689Z,17.30
2019-04-23T15:52:00.371Z,17.20
2019-04-23T15:54:52.844Z,17.20
2019-04-23T15:58:05.059Z,17.10
2019-04-23T16:01:26.514Z,17.10
2019-04-23T16:03:53.397Z,17.00
2019-04-23T16:06:57.264Z,16.90
2019-04-23T16:10:28.485Z,16.90
2019-04-23T16:13:40.596Z,16.90
2019-04-23T16:16:46.302Z,16.90
2019-04-23T16:23:09.506Z,16.90
2019-04-23T16:26:14.280Z,16.80
2019-04-23T16:36:01.495Z,16.80
2019-04-23T16:39:04.418Z,16.90
2019-04-23T16:42:10.106Z,16.80
2019-04-23T16:45:14.854Z,16.80
2019-04-23T16:48:35.386Z,16.80
2019-04-23T16:51:32.744Z,16.80
2019-04-23T16:54:31.339Z,16.70
2019-04-23T20:42:48.133Z,16.60
2019-04-23T20:45:56.300Z,16.50
2019-04-23T20:48:53.673Z,16.50
2019-04-23T20:52:04.813Z,16.50
2019-04-23T20:58:13.873Z,16.40
2019-04-23T21:01:48.177Z,16.40
2019-04-23T21:05:01.476Z,16.30
2019-04-23T21:07:57.973Z,16.30
2019-04-23T21:10:55.700Z,16.30
2019-04-23T21:14:15.317Z,16.30
2019-04-23T21:17:15.258Z,16.20
2019-04-23T21:20:30.112Z,16.20
2019-04-23T21:23:17.692Z,16.20
2019-04-23T21:26:32.470Z,16.10
2019-04-23T21:29:44.906Z,16.10
2019-04-23T21:32:59.027Z,16.00
2019-04-23T21:42:41.175Z,15.90
2019-04-23T21:45:54.566Z,15.90
2019-04-23T21:51:56.463Z,15.80
2019-04-23T21:54:56.907Z,15.80
2019-04-23T21:58:07.254Z,15.80
2019-04-23T22:01:24.352Z,15.70
2019-04-23T22:07:35.862Z,15.70
2019-04-23T22:10:39.841Z,15.70
2019-04-23T22:13:51.709Z,15.70
2019-04-23T22:16:53.919Z,15.70
2019-04-23T22:19:57.918Z,15.60
2019-04-23T22:23:03.805Z,15.50
2019-04-23T22:26:07.916Z,15.50
2019-04-23T22:32:02.417Z,15.40
2019-04-23T22:35:10.614Z,15.40
2019-04-23T22:38:33.836Z,15.30
2019-04-23T22:41:37.177Z,15.40
2019-04-23T22:44:32.572Z,15.40
2019-04-23T22:47:42.952Z,15.30
2019-04-23T22:50:59.323Z,15.30
2019-04-23T22:53:58.636Z,15.30
2019-04-23T23:00:13.069Z,15.20
2019-04-23T23:03:11.666Z,15.20
2019-04-23T23:06:21.043Z,15.20
2019-04-23T23:09:28.753Z,15.10
2019-04-23T23:12:43.514Z,15.10
2019-04-23T23:15:44.197Z,15.00
2019-04-23T23:18:44.916Z,15.10
2019-04-23T23:22:00.287Z,15.00
2019-04-23T23:24:56.439Z,14.90
2019-04-23T23:28:09.687Z,14.90
2019-04-23T23:34:09.428Z,14.80
2019-04-23T23:37:12.800Z,14.80
2019-04-23T23:40:23.793Z,14.80
2019-04-23T23:43:29.706Z,14.80
2019-04-23T23:52:53.583Z,14.80
2019-04-23T23:55:58.913Z,14.80
2019-04-23T23:59:04.238Z,14.80
